Aérodrome :
LOGIN :

S'inscrire | Disclaimer

   EN    FR    IT 

 










Légende :    VFR   VFR Marginal   IFR   IFR Intensif   IFR Très Intensif
Visi : 
Plafond : 
>= 8 km
>= 3000ft
5 à 8 km
1000 à 3000 ft
1500m à 5 km
500 à 1000 ft
800 à 1500m
200 à 500 ft
< 800m
< 200 ft
Symboles :   Orages  Brouillard  Fortes neiges  Fortes précipitations  Vent > 20 kt
SIGMETs :   Divers  Orages  Givrage  Turbulence  Onde Orograph.  Cendres Volcan.







- Altitude de l'aérodrome : 289 ft
- Code IATA : ZAD


LDZD - Zadar

DERNIER METAR :
  • 241430Z 31014KT 280V350 9999 FEW050 24/09 Q1016 NOSIG

METARs EXPIRÉS :
  • 241400Z 31014KT 260V350 9999 FEW050 24/08 Q1017 NOSIG
  • 241330Z 30015KT 270V340 9999 FEW050 24/08 Q1017 NOSIG
  • 241300Z 31012KT 260V360 9999 FEW050 25/08 Q1017 NOSIG
  • 241230Z 34009KT 270V040 9999 FEW050 25/09 Q1017 NOSIG
  • 241200Z 32010G20KT 240V020 9999 FEW050 24/08 Q1017 BECMG 32010KT

TAF TAF LDZD
Valide du 24 à 12h jusqu'au 25 à 12h UTC


241125Z 2412/2512 30012KT 9999 FEW050 TX26/2413Z TN15/2503Z
PROB40
TEMPO 2412/2414 VRB07KT
BECMG 2417/2419 05008KT
Pas de NOTAMs connus pour ce terrain.



MET'MAP, la Météo Aéronautique d'un coup d'oeil ! - Copyright ORBIFLY Décembre 2007 - Disclaimer

ORBIFLY MET'MAP TEAM :

Programmation & Développement : Alexandra Zaïnal
Conception & Développement : Baudouin d'Aumeries
Co-Programmation & Développement : Marc-Olivier Méhu
Soutien technique & logistique : Manuel Goepfert

Contact : metmap@orbifly.com




SOURCES & CREDITS :

   NOAA